createdAt,value
2022-09-21T00:00:04.103Z,9.6
2022-09-21T00:01:05.261Z,9.6
2022-09-21T00:02:01.209Z,9.6
2022-09-21T00:03:01.303Z,9.6
2022-09-21T00:04:01.058Z,9.6
2022-09-21T00:05:00.638Z,9.6
2022-09-21T00:06:05.553Z,9.6
2022-09-21T00:07:01.612Z,9.6
2022-09-21T00:08:01.509Z,9.6
2022-09-21T00:09:01.233Z,9.6
2022-09-21T00:10:01.095Z,9.7
2022-09-21T00:11:08.446Z,9.7
2022-09-21T00:12:01.371Z,9.7
2022-09-21T00:13:02.040Z,9.6
2022-09-21T00:14:01.328Z,9.7
2022-09-21T00:15:01.138Z,9.7
2022-09-21T00:16:11.076Z,9.7
2022-09-21T00:17:01.531Z,9.7
2022-09-21T00:18:01.852Z,9.7
2022-09-21T00:19:01.149Z,9.7
2022-09-21T00:20:00.853Z,9.6
2022-09-21T00:21:13.360Z,9.6
2022-09-21T00:22:01.876Z,9.6
2022-09-21T00:23:02.434Z,9.6
2022-09-21T00:24:01.333Z,9.6
2022-09-21T00:25:02.318Z,9.6
2022-09-21T00:26:15.317Z,9.6
2022-09-21T00:27:01.948Z,9.6
2022-09-21T00:28:01.188Z,9.6
2022-09-21T00:29:01.205Z,9.6
2022-09-21T00:30:01.576Z,9.6
2022-09-21T00:31:01.274Z,9.6
2022-09-21T00:32:01.197Z,9.6
2022-09-21T00:33:01.147Z,9.6
2022-09-21T00:34:01.145Z,9.6
2022-09-21T00:35:01.160Z,9.6
2022-09-21T00:36:01.069Z,9.6
2022-09-21T00:37:01.064Z,9.5
2022-09-21T00:38:01.242Z,9.5
2022-09-21T00:39:01.507Z,9.5
2022-09-21T00:40:01.283Z,9.5
2022-09-21T00:41:01.083Z,9.5
2022-09-21T00:42:01.114Z,9.5
2022-09-21T00:43:01.131Z,9.5
2022-09-21T00:44:01.110Z,9.5
2022-09-21T00:45:01.115Z,9.5
2022-09-21T00:46:01.206Z,9.5
2022-09-21T00:47:01.245Z,9.5
2022-09-21T00:48:01.538Z,9.5
2022-09-21T00:49:01.062Z,9.5
2022-09-21T00:50:01.785Z,9.5
2022-09-21T00:51:00.761Z,9.5
2022-09-21T00:52:00.345Z,9.5
2022-09-21T00:53:00.048Z,9.5
2022-09-21T00:53:59.863Z,9.5
2022-09-21T00:55:01.753Z,9.5
2022-09-21T00:56:01.787Z,9.5
2022-09-21T00:57:02.111Z,9.5
2022-09-21T00:58:01.109Z,9.5
2022-09-21T00:59:01.108Z,9.5
2022-09-21T01:00:01.131Z,9.5
2022-09-21T01:01:01.141Z,9.5
2022-09-21T01:02:01.212Z,9.5
2022-09-21T01:03:01.130Z,9.5
2022-09-21T01:04:01.029Z,9.5
2022-09-21T01:05:01.141Z,9.5
2022-09-21T01:06:01.073Z,9.5
2022-09-21T01:07:01.869Z,9.5
2022-09-21T01:08:01.453Z,9.5
2022-09-21T01:09:01.085Z,9.5
2022-09-21T01:10:01.081Z,9.5
2022-09-21T01:11:01.472Z,9.5
2022-09-21T01:12:01.127Z,9.5
2022-09-21T01:13:01.150Z,9.5
2022-09-21T01:14:01.114Z,9.5
2022-09-21T01:15:01.120Z,9.6
2022-09-21T01:16:01.156Z,9.6
2022-09-21T01:17:04.709Z,9.6
2022-09-21T01:18:02.215Z,9.6
2022-09-21T01:19:01.440Z,9.6
2022-09-21T01:20:01.256Z,9.6
2022-09-21T01:21:02.090Z,9.6
2022-09-21T01:22:02.088Z,9.6
2022-09-21T01:23:01.746Z,9.6
2022-09-21T01:24:01.307Z,9.6
2022-09-21T01:25:01.306Z,9.6
2022-09-21T01:26:01.329Z,9.6
2022-09-21T01:27:02.215Z,9.6
2022-09-21T01:28:02.141Z,9.6
2022-09-21T01:29:01.130Z,9.6
2022-09-21T01:29:59.763Z,9.6
2022-09-21T01:31:01.414Z,9.6
2022-09-21T01:32:02.472Z,9.6
2022-09-21T01:33:02.357Z,9.6
2022-09-21T01:34:04.665Z,9.6
2022-09-21T01:35:02.343Z,9.6
2022-09-21T01:36:01.587Z,9.6
2022-09-21T01:37:01.860Z,9.6
2022-09-21T01:38:01.067Z,9.6
2022-09-21T01:39:01.069Z,9.6
2022-09-21T01:40:01.096Z,9.6
2022-09-21T01:41:01.461Z,9.6
2022-09-21T01:42:01.054Z,9.5
2022-09-21T01:43:01.092Z,9.5
2022-09-21T01:44:01.062Z,9.5
2022-09-21T01:45:01.377Z,9.5
2022-09-21T01:46:01.345Z,9.5
2022-09-21T01:47:01.108Z,9.5
2022-09-21T01:48:01.118Z,9.5
2022-09-21T01:49:01.424Z,9.5
2022-09-21T01:50:01.130Z,9.5
2022-09-21T01:51:01.155Z,9.5
2022-09-21T01:52:03.866Z,9.5
2022-09-21T01:53:01.402Z,9.5
2022-09-21T01:54:01.069Z,9.5
2022-09-21T01:55:01.067Z,9.5
2022-09-21T01:56:01.082Z,9.6
2022-09-21T01:57:06.897Z,9.5
2022-09-21T01:58:01.781Z,9.5
2022-09-21T01:59:01.367Z,9.5
2022-09-21T02:00:02.023Z,9.5
2022-09-21T02:01:02.120Z,9.5
2022-09-21T02:02:09.860Z,9.5
2022-09-21T02:03:01.119Z,9.5
2022-09-21T02:04:00.837Z,9.5
2022-09-21T02:05:00.667Z,9.5
2022-09-21T02:06:00.331Z,9.5
2022-09-21T02:07:11.742Z,9.5
2022-09-21T02:08:01.315Z,9.5
2022-09-21T02:09:02.974Z,9.5
2022-09-21T02:10:02.420Z,9.5
2022-09-21T02:11:00.775Z,9.5
2022-09-21T02:12:18.175Z,9.6
2022-09-21T02:13:01.547Z,9.6
2022-09-21T02:14:01.673Z,9.6
2022-09-21T02:15:01.264Z,9.6
2022-09-21T02:16:01.371Z,9.6
2022-09-21T02:17:16.804Z,9.6
2022-09-21T02:18:01.144Z,9.6
2022-09-21T02:19:01.118Z,9.6
2022-09-21T02:20:01.127Z,9.6
2022-09-21T02:21:05.075Z,9.6
2022-09-21T02:22:01.137Z,9.6
2022-09-21T02:23:01.154Z,9.6
2022-09-21T02:24:01.162Z,9.6
2022-09-21T02:25:01.447Z,9.6
2022-09-21T02:26:01.070Z,9.6
2022-09-21T02:27:01.087Z,9.6
2022-09-21T02:28:01.786Z,9.6
2022-09-21T02:29:00.797Z,9.6
2022-09-21T02:30:00.505Z,9.6
2022-09-21T02:31:00.253Z,9.6
2022-09-21T02:31:59.974Z,9.6
2022-09-21T02:32:59.666Z,9.6
2022-09-21T02:34:01.908Z,9.6
2022-09-21T02:35:01.793Z,9.6
2022-09-21T02:36:01.133Z,9.6
2022-09-21T02:37:01.131Z,9.6
2022-09-21T02:38:01.130Z,9.6
2022-09-21T02:39:00.685Z,9.6
2022-09-21T02:40:00.490Z,9.6
2022-09-21T02:41:00.392Z,9.6
2022-09-21T02:42:00.080Z,9.6
2022-09-21T02:42:59.797Z,9.6
2022-09-21T02:44:01.786Z,9.6
2022-09-21T02:45:01.795Z,9.6
2022-09-21T02:46:01.112Z,9.6
2022-09-21T02:47:01.101Z,9.6
2022-09-21T02:48:01.772Z,9.6
2022-09-21T02:49:01.174Z,9.6
2022-09-21T02:50:01.826Z,9.6
2022-09-21T02:51:02.149Z,9.6
2022-09-21T02:52:01.934Z,9.6
2022-09-21T02:53:01.460Z,9.6
2022-09-21T02:54:01.137Z,9.6
2022-09-21T02:55:01.164Z,9.6
2022-09-21T02:56:01.062Z,9.6
2022-09-21T02:57:01.058Z,9.6
2022-09-21T02:58:01.108Z,9.6
2022-09-21T02:59:01.075Z,9.6
2022-09-21T03:00:01.107Z,9.6
2022-09-21T03:01:01.112Z,9.6
2022-09-21T03:02:01.132Z,9.6
2022-09-21T03:03:01.095Z,9.6
2022-09-21T03:04:01.039Z,9.6
2022-09-21T03:05:01.035Z,9.6
2022-09-21T03:06:01.069Z,9.6
2022-09-21T03:07:01.059Z,9.6
2022-09-21T03:08:03.775Z,9.6
2022-09-21T03:09:01.036Z,9.6
2022-09-21T03:10:01.173Z,9.6
2022-09-21T03:11:01.163Z,9.6
2022-09-21T03:12:01.066Z,9.6
2022-09-21T03:13:01.073Z,9.6
2022-09-21T03:14:01.469Z,9.6
2022-09-21T03:15:01.188Z,9.7
2022-09-21T03:16:01.946Z,9.7
2022-09-21T03:17:01.159Z,9.7
2022-09-21T03:18:01.119Z,9.7
2022-09-21T03:19:01.116Z,9.7
2022-09-21T03:20:01.844Z,9.7
2022-09-21T03:21:01.119Z,9.7
2022-09-21T03:22:01.813Z,9.7
2022-09-21T03:23:01.421Z,9.7
2022-09-21T03:24:01.017Z,9.7
2022-09-21T03:25:01.147Z,9.7
2022-09-21T03:26:01.174Z,9.7
2022-09-21T03:27:01.817Z,9.7
2022-09-21T03:28:01.864Z,9.7
2022-09-21T03:29:02.478Z,9.7
2022-09-21T03:30:02.319Z,9.7
2022-09-21T03:31:01.146Z,9.7
2022-09-21T03:32:01.364Z,9.7
2022-09-21T03:33:01.899Z,9.8
2022-09-21T03:34:01.088Z,9.8
2022-09-21T03:35:01.095Z,9.7
2022-09-21T03:36:01.122Z,9.7
2022-09-21T03:37:01.110Z,9.7
2022-09-21T03:38:04.744Z,9.7
2022-09-21T03:39:01.141Z,9.7
2022-09-21T03:40:01.505Z,9.7
2022-09-21T03:41:01.449Z,9.7
2022-09-21T03:42:01.589Z,9.7
2022-09-21T03:43:07.726Z,9.7
2022-09-21T03:44:01.739Z,9.7
2022-09-21T03:45:01.743Z,9.8
2022-09-21T03:46:01.145Z,9.8
2022-09-21T03:47:01.093Z,9.8
2022-09-21T03:48:10.683Z,9.8
2022-09-21T03:49:01.479Z,9.8
2022-09-21T03:50:01.419Z,9.8
2022-09-21T03:51:04.101Z,9.8
2022-09-21T03:52:01.127Z,9.8
2022-09-21T03:53:10.796Z,9.8
2022-09-21T03:54:01.493Z,9.8
2022-09-21T03:55:01.126Z,9.8
2022-09-21T03:56:01.856Z,9.8
2022-09-21T03:57:01.538Z,9.8
2022-09-21T03:58:14.357Z,9.8
2022-09-21T03:59:01.172Z,9.8
2022-09-21T04:00:01.081Z,9.8
2022-09-21T04:01:01.881Z,9.8
2022-09-21T04:02:03.782Z,9.8
2022-09-21T04:03:17.412Z,9.8
2022-09-21T04:04:01.885Z,9.8
2022-09-21T04:05:01.106Z,9.7
2022-09-21T04:06:01.097Z,9.7
2022-09-21T04:07:04.196Z,9.6
2022-09-21T04:08:01.710Z,9.6
2022-09-21T04:09:01.117Z,9.6
2022-09-21T04:10:01.180Z,9.6
2022-09-21T04:11:01.188Z,9.6
2022-09-21T04:12:01.524Z,9.6
2022-09-21T04:13:01.156Z,9.5
2022-09-21T04:14:01.150Z,9.5
2022-09-21T04:15:01.174Z,9.5
2022-09-21T04:16:01.870Z,9.5
2022-09-21T04:17:01.369Z,9.5
2022-09-21T04:18:02.085Z,9.5
2022-09-21T04:19:01.191Z,9.6
2022-09-21T04:20:00.883Z,9.6
2022-09-21T04:21:01.419Z,9.6
2022-09-21T04:22:01.351Z,9.6
2022-09-21T04:23:02.110Z,9.6
2022-09-21T04:24:02.147Z,9.6
2022-09-21T04:25:01.390Z,9.6
2022-09-21T04:26:01.136Z,9.6
2022-09-21T04:27:03.085Z,9.6
2022-09-21T04:28:02.049Z,9.6
2022-09-21T04:29:01.150Z,9.6
2022-09-21T04:30:01.572Z,9.6
2022-09-21T04:31:01.771Z,9.6
2022-09-21T04:32:01.738Z,9.6
2022-09-21T04:33:01.177Z,9.6
2022-09-21T04:34:01.122Z,9.6
2022-09-21T04:35:01.205Z,9.6
2022-09-21T04:36:01.191Z,9.7
2022-09-21T04:37:01.196Z,9.7
2022-09-21T04:38:01.199Z,9.7
2022-09-21T04:39:01.858Z,9.7
2022-09-21T04:40:01.005Z,9.7
2022-09-21T04:41:03.860Z,9.7
2022-09-21T04:42:01.218Z,9.8
2022-09-21T04:43:01.141Z,9.8
2022-09-21T04:44:01.141Z,9.7
2022-09-21T04:45:01.858Z,9.7
2022-09-21T04:46:02.533Z,9.8
2022-09-21T04:47:01.847Z,9.8
2022-09-21T04:48:01.477Z,9.8
2022-09-21T04:49:01.098Z,9.8
2022-09-21T04:50:01.094Z,9.8
2022-09-21T04:51:01.105Z,9.7
2022-09-21T04:52:01.100Z,9.7
2022-09-21T04:53:01.406Z,9.7
2022-09-21T04:54:01.411Z,9.7
2022-09-21T04:55:02.727Z,9.6
2022-09-21T04:56:01.421Z,9.7
2022-09-21T04:57:01.401Z,9.7
2022-09-21T04:58:01.136Z,9.7
2022-09-21T04:59:02.147Z,9.6
2022-09-21T05:00:00.837Z,9.7
2022-09-21T05:01:00.631Z,9.7
2022-09-21T05:02:00.338Z,9.7
2022-09-21T05:03:00.031Z,9.7
2022-09-21T05:03:59.828Z,9.7
2022-09-21T05:05:01.700Z,9.6
2022-09-21T05:06:01.423Z,9.6
2022-09-21T05:07:02.084Z,9.6
2022-09-21T05:08:01.488Z,9.6
2022-09-21T05:09:00.874Z,9.6
2022-09-21T05:10:01.091Z,9.6
2022-09-21T05:11:01.057Z,9.6
2022-09-21T05:12:01.115Z,9.6
2022-09-21T05:13:01.123Z,9.6
2022-09-21T05:14:01.005Z,9.6
2022-09-21T05:15:01.453Z,9.6
2022-09-21T05:16:01.210Z,9.6
2022-09-21T05:17:01.170Z,9.6
2022-09-21T05:18:01.141Z,9.6
2022-09-21T05:19:01.169Z,9.6
2022-09-21T05:20:00.880Z,9.6
2022-09-21T05:21:01.307Z,9.7
2022-09-21T05:22:01.988Z,9.6
2022-09-21T05:23:02.614Z,9.7
2022-09-21T05:24:00.831Z,9.7
2022-09-21T05:25:00.376Z,9.7
2022-09-21T05:25:59.955Z,9.8
2022-09-21T05:26:59.665Z,9.8
2022-09-21T05:28:01.783Z,9.8
2022-09-21T05:29:04.410Z,9.8
2022-09-21T05:30:01.262Z,9.8
2022-09-21T05:31:17.071Z,9.8
2022-09-21T05:32:01.154Z,9.8
2022-09-21T05:33:01.757Z,9.8
2022-09-21T05:37:01.059Z,9.9
2022-09-21T05:38:00.548Z,10
2022-09-21T05:39:09.074Z,10
2022-09-21T05:40:02.260Z,10
2022-09-21T05:41:01.088Z,10
2022-09-21T05:42:01.086Z,10
2022-09-21T05:43:01.097Z,10
2022-09-21T05:44:10.469Z,10
2022-09-21T05:45:01.102Z,10
2022-09-21T05:46:01.148Z,10
2022-09-21T05:47:01.244Z,10
2022-09-21T05:48:01.129Z,10
2022-09-21T05:49:12.899Z,10
2022-09-21T05:50:02.296Z,10
2022-09-21T05:51:01.330Z,10
2022-09-21T05:52:01.075Z,10
2022-09-21T05:53:01.064Z,10
2022-09-21T05:54:16.300Z,10
2022-09-21T05:55:01.462Z,10.1
2022-09-21T05:56:02.105Z,10.1
2022-09-21T05:57:02.112Z,10.1
2022-09-21T05:58:01.863Z,10.1
2022-09-21T05:59:00.790Z,10.2
2022-09-21T06:00:00.362Z,10.2
2022-09-21T06:01:00.084Z,10.1
2022-09-21T06:01:59.767Z,10.2
2022-09-21T06:03:01.415Z,10.2
2022-09-21T06:04:01.517Z,10.2
2022-09-21T06:05:02.203Z,10.1
2022-09-21T06:06:01.822Z,10.2
2022-09-21T06:07:01.072Z,10.2
2022-09-21T06:08:01.055Z,10.1
2022-09-21T06:09:01.056Z,10.2
2022-09-21T06:10:00.849Z,10.2
2022-09-21T06:11:00.481Z,10.2
2022-09-21T06:12:00.325Z,10.2
2022-09-21T06:12:59.963Z,10.2
2022-09-21T06:13:59.674Z,10.2
2022-09-21T06:15:01.786Z,10.2
2022-09-21T06:16:01.102Z,10.2
2022-09-21T06:17:01.155Z,10.3
2022-09-21T06:18:01.824Z,10.2
2022-09-21T06:19:01.143Z,10.3
2022-09-21T06:20:01.311Z,10.3
2022-09-21T06:21:01.203Z,10.3
2022-09-21T06:22:01.238Z,10.3
2022-09-21T06:23:01.878Z,10.3
2022-09-21T06:24:01.227Z,10.3
2022-09-21T06:25:00.550Z,10.2
2022-09-21T06:26:00.282Z,10.2
2022-09-21T06:26:59.877Z,10.2
2022-09-21T06:27:59.538Z,10.3
2022-09-21T06:29:01.080Z,10.2
2022-09-21T06:30:01.120Z,10.3
2022-09-21T06:31:01.922Z,10.3
2022-09-21T06:32:01.110Z,10.3
2022-09-21T06:33:01.123Z,10.3
2022-09-21T06:34:01.114Z,10.3
2022-09-21T06:35:01.278Z,10.3
2022-09-21T06:36:01.135Z,10.3
2022-09-21T06:37:01.044Z,10.3
2022-09-21T06:38:01.060Z,10.3
2022-09-21T06:39:01.072Z,10.3
2022-09-21T06:40:01.563Z,10.3
2022-09-21T06:41:01.071Z,10.3
2022-09-21T06:42:01.098Z,10.3
2022-09-21T06:43:01.282Z,10.3
2022-09-21T06:44:01.083Z,10.3
2022-09-21T06:45:01.474Z,10.3
2022-09-21T06:46:01.261Z,10.3
2022-09-21T06:47:01.116Z,10.3
2022-09-21T06:48:01.135Z,10.3
2022-09-21T06:49:01.134Z,10.3
2022-09-21T06:50:01.133Z,10.3
2022-09-21T06:51:01.160Z,10.3
2022-09-21T06:52:01.157Z,10.3
2022-09-21T06:53:01.297Z,10.3
2022-09-21T06:54:01.304Z,10.3
2022-09-21T06:55:02.247Z,10.4
2022-09-21T06:56:01.965Z,10.5
2022-09-21T06:57:01.071Z,10.5
2022-09-21T06:58:02.713Z,10.5
2022-09-21T06:59:00.842Z,10.5
2022-09-21T07:00:01.091Z,10.5
2022-09-21T07:01:01.341Z,10.5
2022-09-21T07:02:02.684Z,10.6
2022-09-21T07:03:02.120Z,10.6
2022-09-21T07:04:02.157Z,10.6
2022-09-21T07:05:01.198Z,10.7
2022-09-21T07:06:01.125Z,10.8
2022-09-21T07:07:03.633Z,10.8
2022-09-21T07:08:01.334Z,10.9
2022-09-21T07:10:13.275Z,11
2022-09-21T07:11:01.159Z,11
2022-09-21T07:12:01.055Z,11
2022-09-21T07:13:01.078Z,11
2022-09-21T07:14:01.221Z,11.1
2022-09-21T07:15:01.090Z,11.1
2022-09-21T07:16:01.060Z,11.1
2022-09-21T07:17:01.078Z,11.2
2022-09-21T07:18:08.200Z,11.2
2022-09-21T07:19:10.791Z,11.2
2022-09-21T07:20:01.118Z,11.3
2022-09-21T07:21:01.146Z,11.3
2022-09-21T07:22:01.148Z,11.3
2022-09-21T07:23:01.142Z,11.3
2022-09-21T07:24:01.156Z,11.3
2022-09-21T07:25:04.313Z,11.3
2022-09-21T07:26:01.718Z,11.2
2022-09-21T07:27:01.415Z,11.2
2022-09-21T07:28:01.015Z,11.2
2022-09-21T07:29:00.955Z,11.2
2022-09-21T07:30:07.125Z,11.2
2022-09-21T07:31:01.079Z,11.2
2022-09-21T07:32:01.069Z,11.2
2022-09-21T07:33:01.062Z,11.2
2022-09-21T07:34:01.062Z,11.3
2022-09-21T07:35:09.177Z,11.3
2022-09-21T07:36:01.230Z,11.3
2022-09-21T07:37:01.119Z,11.3
2022-09-21T07:38:01.373Z,11.3
2022-09-21T07:39:00.868Z,11.4
2022-09-21T07:40:11.958Z,11.4
2022-09-21T07:41:01.038Z,11.5
2022-09-21T07:42:01.057Z,11.5
2022-09-21T07:43:01.070Z,11.6
2022-09-21T07:44:01.060Z,11.6
2022-09-21T07:45:14.725Z,11.6
2022-09-21T07:46:01.944Z,11.6
2022-09-21T07:47:01.758Z,11.5
2022-09-21T07:48:01.088Z,11.5
2022-09-21T07:49:01.098Z,11.5
2022-09-21T07:50:16.133Z,11.5
2022-09-21T07:51:01.425Z,11.5
2022-09-21T07:52:05.068Z,11.5
2022-09-21T07:53:03.009Z,11.6
2022-09-21T07:54:01.183Z,11.6
2022-09-21T07:55:01.032Z,11.7
2022-09-21T07:56:01.060Z,11.7
2022-09-21T07:57:01.129Z,11.8
2022-09-21T07:58:01.173Z,11.8
2022-09-21T07:59:01.083Z,11.8
2022-09-21T08:00:01.176Z,11.9
2022-09-21T08:01:01.945Z,11.9
2022-09-21T08:02:01.196Z,11.8
2022-09-21T08:03:01.083Z,11.8
2022-09-21T08:04:01.084Z,11.8
2022-09-21T08:05:01.099Z,11.8
2022-09-21T08:06:01.107Z,11.9
2022-09-21T08:07:01.204Z,12
2022-09-21T08:08:01.215Z,12
2022-09-21T08:09:01.148Z,12.1
2022-09-21T08:10:01.132Z,12.1
2022-09-21T08:11:01.129Z,12.1
2022-09-21T08:12:01.158Z,12.2
2022-09-21T08:13:01.049Z,12.3
2022-09-21T08:14:01.097Z,12.3
2022-09-21T08:15:01.256Z,12.3
2022-09-21T08:16:01.554Z,12.3
2022-09-21T08:17:02.089Z,12.3
2022-09-21T08:18:01.205Z,12.3
2022-09-21T08:19:01.518Z,12.4
2022-09-21T08:20:01.205Z,12.4
2022-09-21T08:21:01.103Z,12.5
2022-09-21T08:22:01.114Z,12.5
2022-09-21T08:23:01.288Z,12.5
2022-09-21T08:24:01.137Z,12.6
2022-09-21T08:25:01.203Z,12.6
2022-09-21T08:26:01.145Z,12.6
2022-09-21T08:27:00.419Z,12.6
2022-09-21T08:27:59.957Z,12.7
2022-09-21T08:28:59.601Z,12.8
2022-09-21T08:30:01.245Z,12.8
2022-09-21T08:31:02.670Z,12.8
2022-09-21T08:32:02.817Z,12.8
2022-09-21T08:33:01.120Z,12.8
2022-09-21T08:34:01.131Z,12.8
2022-09-21T08:35:01.054Z,12.8
2022-09-21T08:36:01.028Z,12.8
2022-09-21T08:37:01.204Z,12.8
2022-09-21T08:38:01.488Z,12.9
2022-09-21T08:39:01.336Z,12.9
2022-09-21T08:40:01.803Z,12.9
2022-09-21T08:41:02.989Z,12.9
2022-09-21T08:42:01.039Z,13
2022-09-21T08:43:01.033Z,13
2022-09-21T08:44:01.055Z,13
2022-09-21T08:45:01.056Z,13
2022-09-21T08:46:01.431Z,13
2022-09-21T08:47:01.604Z,13
2022-09-21T08:48:01.568Z,13
2022-09-21T08:49:01.247Z,13
2022-09-21T08:50:02.416Z,13
2022-09-21T08:51:01.087Z,13
2022-09-21T08:52:01.102Z,13
2022-09-21T08:53:01.104Z,13
2022-09-21T08:54:01.551Z,13
2022-09-21T08:55:01.059Z,13
2022-09-21T08:56:01.123Z,13.1
2022-09-21T08:57:05.450Z,13.1
2022-09-21T08:58:01.145Z,13.1
2022-09-21T08:59:01.152Z,13.1
2022-09-21T09:00:01.765Z,13.1
2022-09-21T09:01:06.751Z,13.2
2022-09-21T09:02:01.851Z,13.2
2022-09-21T09:03:01.192Z,13.2
2022-09-21T09:04:04.339Z,13.3
2022-09-21T09:05:01.288Z,13.3
2022-09-21T09:06:01.093Z,13.3
2022-09-21T09:07:00.674Z,13.3
2022-09-21T09:08:00.273Z,13.4
2022-09-21T09:08:59.923Z,13.4
2022-09-21T09:09:59.507Z,13.5
2022-09-21T09:11:01.448Z,13.5
2022-09-21T09:12:01.082Z,13.5
2022-09-21T09:13:01.534Z,13.5
2022-09-21T09:14:01.244Z,13.5
2022-09-21T09:15:00.924Z,13.5
2022-09-21T09:16:03.322Z,13.5
2022-09-21T09:17:01.150Z,13.5
2022-09-21T09:18:01.149Z,13.6
2022-09-21T09:19:01.877Z,13.6
2022-09-21T09:20:00.852Z,13.6
2022-09-21T09:21:05.183Z,13.6
2022-09-21T09:22:01.499Z,13.6
2022-09-21T09:23:04.262Z,13.6
2022-09-21T09:24:01.808Z,13.7
2022-09-21T09:25:02.566Z,13.7
2022-09-21T09:26:09.929Z,13.8
2022-09-21T09:27:01.517Z,13.8
2022-09-21T09:28:00.610Z,13.8
2022-09-21T09:29:00.775Z,13.8
2022-09-21T09:30:03.322Z,13.8
2022-09-21T09:31:11.240Z,13.8
2022-09-21T09:32:02.435Z,13.8
2022-09-21T09:33:01.562Z,13.9
2022-09-21T09:34:01.140Z,13.9
2022-09-21T09:35:01.073Z,13.9
2022-09-21T09:36:15.835Z,13.9
2022-09-21T09:37:01.493Z,13.9
2022-09-21T09:38:01.132Z,13.9
2022-09-21T09:39:00.473Z,13.9
2022-09-21T09:40:00.168Z,14
2022-09-21T09:40:59.968Z,14
2022-09-21T09:41:59.571Z,14
2022-09-21T09:43:04.511Z,14.1
2022-09-21T09:44:01.141Z,14.1
2022-09-21T09:45:01.141Z,14.1
2022-09-21T09:46:01.162Z,14.1
2022-09-21T09:47:01.189Z,14.2
2022-09-21T09:48:01.125Z,14.2
2022-09-21T09:49:01.060Z,14.2
2022-09-21T09:50:01.264Z,14.2
2022-09-21T09:51:01.851Z,14.2
2022-09-21T09:52:01.287Z,14.3
2022-09-21T09:53:00.571Z,14.3
2022-09-21T09:54:00.578Z,14.3
2022-09-21T09:55:00.301Z,14.4
2022-09-21T09:55:59.994Z,14.5
2022-09-21T09:56:59.658Z,14.5
2022-09-21T09:58:01.318Z,14.5
2022-09-21T09:59:01.186Z,14.6
2022-09-21T10:00:00.930Z,14.6
2022-09-21T10:01:01.151Z,14.6
2022-09-21T10:02:01.275Z,14.7
2022-09-21T10:03:02.583Z,14.8
2022-09-21T10:04:04.946Z,14.8
2022-09-21T10:05:01.134Z,14.8
2022-09-21T10:06:01.060Z,14.9
2022-09-21T10:07:01.195Z,14.8
2022-09-21T10:08:01.078Z,14.8
2022-09-21T10:09:01.084Z,14.8
2022-09-21T10:10:01.088Z,14.8
2022-09-21T10:11:01.132Z,14.8
2022-09-21T10:12:01.536Z,14.8
2022-09-21T10:13:01.108Z,14.8
2022-09-21T10:14:01.335Z,14.8
2022-09-21T10:15:01.122Z,14.8
2022-09-21T10:16:01.195Z,14.8
2022-09-21T10:17:01.076Z,14.7
2022-09-21T10:18:01.161Z,14.8
2022-09-21T10:19:01.166Z,14.8
2022-09-21T10:20:00.842Z,14.8
2022-09-21T10:21:01.079Z,14.8
2022-09-21T10:22:01.182Z,14.8
2022-09-21T10:23:01.513Z,14.9
2022-09-21T10:24:01.080Z,15
2022-09-21T10:25:01.055Z,15
2022-09-21T10:26:01.111Z,15
2022-09-21T10:27:01.099Z,14.9
2022-09-21T10:28:01.107Z,15
2022-09-21T10:29:01.196Z,15
2022-09-21T10:30:01.433Z,15
2022-09-21T10:31:01.488Z,15
2022-09-21T10:32:01.321Z,15
2022-09-21T10:33:01.333Z,15
2022-09-21T10:34:01.980Z,15
2022-09-21T10:35:02.689Z,15.1
2022-09-21T10:36:01.059Z,15.1
2022-09-21T10:37:01.060Z,15.1
2022-09-21T10:38:01.069Z,15.2
2022-09-21T10:39:01.305Z,15.3
2022-09-21T10:40:00.861Z,15.3
2022-09-21T10:41:01.114Z,15.4
2022-09-21T10:42:01.091Z,15.5
2022-09-21T10:43:01.544Z,15.5
2022-09-21T10:44:01.162Z,15.5
2022-09-21T10:45:01.110Z,15.6
2022-09-21T10:46:01.166Z,15.6
2022-09-21T10:47:01.131Z,15.6
2022-09-21T10:48:01.143Z,15.6
2022-09-21T10:49:01.140Z,15.6
2022-09-21T10:50:01.268Z,15.6
2022-09-21T10:51:01.166Z,15.6
2022-09-21T10:52:01.449Z,15.5
2022-09-21T10:53:01.058Z,15.5
2022-09-21T10:54:01.772Z,15.4
2022-09-21T10:55:01.078Z,15.4
2022-09-21T10:56:17.589Z,15.3
2022-09-21T10:57:01.329Z,15.3
2022-09-21T10:58:01.105Z,15.2
2022-09-21T10:59:01.047Z,15.2
2022-09-21T11:00:01.129Z,15.1
2022-09-21T11:01:00.907Z,15.1
2022-09-21T11:02:02.022Z,15.1
2022-09-21T11:03:01.280Z,15.1
2022-09-21T11:04:01.131Z,15.1
2022-09-21T11:05:01.170Z,15.1
2022-09-21T11:06:00.528Z,15.1
2022-09-21T11:07:05.551Z,15.1
2022-09-21T11:08:01.193Z,15.1
2022-09-21T11:09:01.183Z,15.1
2022-09-21T11:10:01.298Z,15.1
2022-09-21T11:11:01.227Z,15.1
2022-09-21T11:12:06.831Z,15.1
2022-09-21T11:13:01.113Z,15.2
2022-09-21T11:14:01.174Z,15.2
2022-09-21T11:15:01.104Z,15.2
2022-09-21T11:16:01.204Z,15.2
2022-09-21T11:17:09.436Z,15.2
2022-09-21T11:18:01.662Z,15.2
2022-09-21T11:19:01.218Z,15.2
2022-09-21T11:20:01.232Z,15.3
2022-09-21T11:21:00.869Z,15.3
2022-09-21T11:22:10.896Z,15.3
2022-09-21T11:23:02.125Z,15.3
2022-09-21T11:24:01.061Z,15.3
2022-09-21T11:25:01.104Z,15.3
2022-09-21T11:26:01.085Z,15.3
2022-09-21T11:27:14.200Z,15.4
2022-09-21T11:28:01.091Z,15.4
2022-09-21T11:29:01.090Z,15.4
2022-09-21T11:30:01.100Z,15.4
2022-09-21T11:31:01.157Z,15.4
2022-09-21T11:32:16.365Z,15.3
2022-09-21T11:33:02.023Z,15.3
2022-09-21T11:34:01.119Z,15.3
2022-09-21T11:35:00.728Z,15.3
2022-09-21T11:36:00.421Z,15.3
2022-09-21T11:37:00.043Z,15.3
2022-09-21T11:37:59.652Z,15.3
2022-09-21T11:39:01.974Z,15.3
2022-09-21T11:40:01.458Z,15.3
2022-09-21T11:41:01.291Z,15.3
2022-09-21T11:42:01.167Z,15.3
2022-09-21T11:43:01.406Z,15.3
2022-09-21T11:44:02.986Z,15.3
2022-09-21T11:45:01.121Z,15.3
2022-09-21T11:46:01.163Z,15.3
2022-09-21T11:47:01.172Z,15.3
2022-09-21T11:48:01.118Z,15.3
2022-09-21T11:49:01.120Z,15.3
2022-09-21T11:50:19.496Z,15.3
2022-09-21T11:51:00.873Z,15.3
2022-09-21T11:52:00.523Z,15.3
2022-09-21T11:53:00.321Z,15.3
2022-09-21T11:54:00.023Z,15.3
2022-09-21T11:54:59.722Z,15.3
2022-09-21T11:56:02.089Z,15.3
2022-09-21T11:57:02.084Z,15.3
2022-09-21T11:58:01.087Z,15.3
2022-09-21T11:59:01.091Z,15.3
2022-09-21T12:00:01.101Z,15.3
2022-09-21T12:01:00.908Z,15.2
2022-09-21T12:02:01.145Z,15.2
2022-09-21T12:03:00.695Z,15.1
2022-09-21T12:04:00.417Z,15.1
2022-09-21T12:05:00.199Z,15.1
2022-09-21T12:05:59.927Z,15.1
2022-09-21T12:06:59.586Z,15.1
2022-09-21T12:08:01.222Z,15.2
2022-09-21T12:09:01.048Z,15.3
2022-09-21T12:10:01.151Z,15.3
2022-09-21T12:11:01.081Z,15.5
2022-09-21T12:12:01.070Z,15.5
2022-09-21T12:13:01.148Z,15.6
2022-09-21T12:14:01.476Z,15.7
2022-09-21T12:15:01.109Z,15.8
2022-09-21T12:16:01.098Z,15.8
2022-09-21T12:17:01.228Z,15.9
2022-09-21T12:18:01.105Z,15.9
2022-09-21T12:19:01.114Z,16
2022-09-21T12:20:01.135Z,16
2022-09-21T12:21:00.916Z,16
2022-09-21T12:22:01.140Z,16
2022-09-21T12:23:01.137Z,16
2022-09-21T12:24:01.279Z,16
2022-09-21T12:25:01.611Z,16
2022-09-21T12:26:02.091Z,16
2022-09-21T12:27:02.170Z,15.9
2022-09-21T12:28:01.044Z,15.9
2022-09-21T12:29:03.858Z,15.9
2022-09-21T12:30:01.940Z,15.9
2022-09-21T12:31:01.799Z,15.8
2022-09-21T12:32:01.133Z,15.8
2022-09-21T12:33:01.801Z,15.8
2022-09-21T12:34:03.858Z,15.8
2022-09-21T12:35:02.157Z,15.8
2022-09-21T12:36:01.523Z,15.8
2022-09-21T12:37:01.138Z,15.7
2022-09-21T12:38:01.132Z,15.7
2022-09-21T12:39:01.168Z,15.7
2022-09-21T12:40:01.216Z,15.7
2022-09-21T12:41:00.955Z,15.7
2022-09-21T12:42:01.065Z,15.7
2022-09-21T12:43:01.069Z,15.7
2022-09-21T12:44:01.082Z,15.7
2022-09-21T12:45:01.075Z,15.6
2022-09-21T12:46:01.178Z,15.6
2022-09-21T12:47:02.004Z,15.6
2022-09-21T12:48:02.046Z,15.6
2022-09-21T12:49:01.104Z,15.6
2022-09-21T12:50:01.847Z,15.6
2022-09-21T12:51:05.828Z,15.6
2022-09-21T12:52:01.517Z,15.6
2022-09-21T12:53:03.068Z,15.6
2022-09-21T12:54:01.151Z,15.6
2022-09-21T12:55:01.594Z,15.5
2022-09-21T12:56:01.051Z,15.5
2022-09-21T12:57:03.776Z,15.5
2022-09-21T12:58:18.062Z,15.4
2022-09-21T12:59:01.075Z,15.3
2022-09-21T13:00:01.385Z,15.2
2022-09-21T13:01:01.415Z,15.2
2022-09-21T13:02:01.449Z,15.1
2022-09-21T13:03:02.789Z,15.1
2022-09-21T13:04:02.170Z,15.1
2022-09-21T13:05:01.412Z,15.1
2022-09-21T13:06:02.052Z,15.1
2022-09-21T13:07:01.118Z,15.1
2022-09-21T13:08:04.244Z,15.1
2022-09-21T13:09:01.032Z,15.1
2022-09-21T13:10:01.266Z,15
2022-09-21T13:11:05.176Z,15.1
2022-09-21T13:12:01.433Z,15.1
2022-09-21T13:13:07.581Z,15.1
2022-09-21T13:14:01.808Z,15.1
2022-09-21T13:15:01.277Z,15.1
2022-09-21T13:16:00.972Z,15.1
2022-09-21T13:17:00.670Z,15.1
2022-09-21T13:18:10.072Z,15.2
2022-09-21T13:19:01.387Z,15.2
2022-09-21T13:20:00.788Z,15.2
2022-09-21T13:21:00.505Z,15.3
2022-09-21T13:22:00.173Z,15.3
2022-09-21T13:23:12.342Z,15.3
2022-09-21T13:24:01.136Z,15.3
2022-09-21T13:25:01.172Z,15.3
2022-09-21T13:26:01.144Z,15.3
2022-09-21T13:27:01.046Z,15.3
2022-09-21T13:28:14.830Z,15.4
2022-09-21T13:29:01.057Z,15.4
2022-09-21T13:30:01.074Z,15.4
2022-09-21T13:31:02.442Z,15.4
2022-09-21T13:32:01.475Z,15.4
2022-09-21T13:33:01.199Z,15.4
2022-09-21T13:34:01.101Z,15.4
2022-09-21T13:35:01.115Z,15.4
2022-09-21T13:36:01.115Z,15.4
2022-09-21T13:37:01.154Z,15.3